Mister Mac — WDH8821 — position and weather

sailwx.info

Track history (hours):
 
Tides and Currents Weather Stations Pressure Air Temp Water Temp Dewpoint Dewpoint Depression Visibility Wind Speed Wind Dir Waves Ship Positions

Mister Mac

Owner: McDonough Project Services LP, Metairie, LA. More information available from US FCC via Universal Licensing System and Coast Guard Vessel Documentation Center.

Last reported at 2018-Feb-19 14:11 UTC. Time now 2018-Feb-21 19:23 UTC.
Position N 29°33' W 090°26'.

Length 25 m; draft 3 m.

Type: Towing. MMSI: 367661820.

Date/timePositionNaut miles runAvg speedWind from/ knotsBaromVisibWave heightAir tempDewpointWater temp
2018-Feb-19 14:11N 29°33' W 090°26'1 5.6
2018-Feb-19 13:59N 29°33' W 090°27'3 6.7
2018-Feb-19 13:30N 29°34' W 090°31'3 6.7
2018-Feb-19 13:00N 29°34' W 090°35'3 5.5
2018-Feb-19 12:30N 29°35' W 090°38'1 2.2
2018-Feb-19 11:58N 29°35' W 090°39'0 0.0
2018-Feb-19 11:30N 29°35' W 090°39'0 0.0
2018-Feb-19 11:00N 29°35' W 090°39'1 3.0
2018-Feb-19 10:30N 29°36' W 090°40'1 2.0
2018-Feb-19 10:00N 29°37' W 090°41'1 2.0
2018-Feb-19 09:30N 29°37' W 090°42'2 4.4
2018-Feb-19 08:59N 29°34' W 090°43'2 4.0
2018-Feb-19 08:30N 29°33' W 090°45'0 0.0
2018-Feb-19 08:00N 29°33' W 090°45'0 0.0
2018-Feb-19 07:30N 29°33' W 090°45'0 0.0
2018-Feb-19 07:00N 29°33' W 090°45'0 0.0
2018-Feb-19 06:28N 29°33' W 090°45'0 0.4
2018-Feb-19 06:00N 29°33' W 090°45'3 5.9
2018-Feb-19 05:30N 29°32' W 090°48'4 7.3
2018-Feb-19 05:00N 29°32' W 090°53'4 7.1
2018-Feb-19 04:29N 29°34' W 090°56'2 3.9
2018-Feb-19 03:58N 29°35' W 090°58'0 0.0
2018-Feb-18 23:39N 29°35' W 090°58'2 6.0
2018-Feb-18 23:23N 29°34' W 090°57'2 6.1
2018-Feb-18 23:00N 29°33' W 090°54'3 5.7
2018-Feb-18 22:26N 29°32' W 090°51'2 5.4
2018-Feb-18 22:00N 29°32' W 090°48'2 4.9
2018-Feb-18 21:30N 29°33' W 090°45'2 4.6
2018-Feb-18 21:00N 29°34' W 090°43'2 4.2
2018-Feb-18 20:30N 29°36' W 090°43'2 3.9
2018-Feb-18 20:00N 29°36' W 090°40'2 4.7
2018-Feb-18 19:30N 29°35' W 090°38'3 5.6
2018-Feb-18 19:00N 29°34' W 090°35'  
2018-Feb-11 17:12N 29°34' W 090°23'2 5.8
2018-Feb-11 16:49N 29°33' W 090°26'2 7.2
2018-Feb-11 16:30N 29°34' W 090°28'4 7.2
2018-Feb-11 16:00N 29°34' W 090°33'3 5.9
2018-Feb-11 15:31N 29°35' W 090°36'1 1.0
2018-Feb-11 15:00N 29°35' W 090°36'0 0.1
2018-Feb-11 14:30N 29°35' W 090°36'0 0.2
2018-Feb-11 14:00N 29°35' W 090°36'0 0.5
2018-Feb-11 13:30N 29°35' W 090°36'0 0.0
2018-Feb-11 13:00N 29°35' W 090°36'0 0.0
2018-Feb-11 12:30N 29°35' W 090°36'0 0.0
2018-Feb-11 12:00N 29°35' W 090°36'0 0.0
2018-Feb-11 11:30N 29°35' W 090°36'0 0.0
2018-Feb-11 11:00N 29°35' W 090°36'0 0.0
2018-Feb-11 10:30N 29°35' W 090°36'0 0.0
2018-Feb-11 10:00N 29°35' W 090°36'0 0.0
2018-Feb-11 09:30N 29°35' W 090°36'0 0.0
2018-Feb-11 09:00N 29°35' W 090°36'0 0.0
2018-Feb-11 08:30N 29°35' W 090°36'0 0.0
2018-Feb-11 07:59N 29°35' W 090°36'0 0.0
2018-Feb-11 07:30N 29°35' W 090°36'0 0.0
2018-Feb-11 07:00N 29°35' W 090°36'0 0.0
2018-Feb-11 06:30N 29°35' W 090°36'0 0.0
2018-Feb-11 06:00N 29°35' W 090°36'0 0.0
2018-Feb-11 05:30N 29°35' W 090°36'0 0.0
2018-Feb-11 05:00N 29°35' W 090°36'0 0.0
2018-Feb-11 04:30N 29°35' W 090°36'0 0.0
2018-Feb-11 04:00N 29°35' W 090°36'0 0.0
2018-Feb-11 03:30N 29°35' W 090°36'0 0.0
2018-Feb-11 03:00N 29°35' W 090°36'0 0.0
2018-Feb-11 02:29N 29°35' W 090°36'0 0.0
2018-Feb-11 02:00N 29°35' W 090°36'0 0.0
2018-Feb-11 01:30N 29°35' W 090°36'0 0.0
2018-Feb-11 01:00N 29°35' W 090°36'0 0.0
2018-Feb-11 00:30N 29°35' W 090°36'0 0.4
2018-Feb-11 00:00N 29°35' W 090°36'3 6.4
2018-Feb-10 23:30N 29°36' W 090°39'3 5.8
2018-Feb-10 23:00N 29°37' W 090°42'2 4.9
2018-Feb-10 22:30N 29°34' W 090°43'2 3.5
2018-Feb-10 22:00N 29°33' W 090°45'0 0.0
2018-Feb-10 21:28N 29°33' W 090°45'0 0.0
2018-Feb-10 20:46N 29°33' W 090°45'0 0.0
2018-Feb-10 20:30N 29°33' W 090°45'0 0.0
2018-Feb-10 20:00N 29°33' W 090°45'0 0.7
2018-Feb-10 19:30N 29°33' W 090°45'3 5.1
2018-Feb-10 19:00N 29°32' W 090°48'4 7.4
2018-Feb-10 18:30N 29°32' W 090°52'4 7.4
2018-Feb-10 18:00N 29°34' W 090°56'1 0.1
2018-Feb-10 05:19N 29°34' W 090°57'2 5.7
2018-Feb-10 05:00N 29°33' W 090°55'3 6.2
2018-Feb-10 04:29N 29°32' W 090°52'3 6.4
2018-Feb-10 04:00N 29°32' W 090°48'3 5.7
2018-Feb-10 03:30N 29°33' W 090°45'3 5.2
2018-Feb-10 03:00N 29°35' W 090°43'2 3.9
2018-Feb-10 02:30N 29°37' W 090°41'3 6.1
2018-Feb-10 02:00N 29°35' W 090°38'3 5.1
2018-Feb-10 01:30N 29°35' W 090°35'3 5.8
2018-Feb-10 01:00N 29°34' W 090°32'  
Track history (hours):
 
Tides and Currents Weather Stations Pressure Air Temp Water Temp Dewpoint Dewpoint Depression Visibility Wind Speed Wind Dir Waves Ship Positions

Mister Mac

Owner: McDonough Project Services LP, Metairie, LA. More information available from US FCC via Universal Licensing System and Coast Guard Vessel Documentation Center.

Last reported at 2018-Feb-19 14:11 UTC. Time now 2018-Feb-21 19:23 UTC.
Position N 29°33' W 090°26'.

Length 25 m; draft 3 m.

Type: Towing. MMSI: 367661820.

Date/timePositionNaut miles runAvg speedWind from/ knotsBaromVisibWave heightAir tempDewpointWater temp
2018-Feb-19 14:11N 29°33' W 090°26'1 5.6
2018-Feb-19 13:59N 29°33' W 090°27'3 6.7
2018-Feb-19 13:30N 29°34' W 090°31'3 6.7
2018-Feb-19 13:00N 29°34' W 090°35'3 5.5
2018-Feb-19 12:30N 29°35' W 090°38'1 2.2
2018-Feb-19 11:58N 29°35' W 090°39'0 0.0
2018-Feb-19 11:30N 29°35' W 090°39'0 0.0
2018-Feb-19 11:00N 29°35' W 090°39'1 3.0
2018-Feb-19 10:30N 29°36' W 090°40'1 2.0
2018-Feb-19 10:00N 29°37' W 090°41'1 2.0
2018-Feb-19 09:30N 29°37' W 090°42'2 4.4
2018-Feb-19 08:59N 29°34' W 090°43'2 4.0
2018-Feb-19 08:30N 29°33' W 090°45'0 0.0
2018-Feb-19 08:00N 29°33' W 090°45'0 0.0
2018-Feb-19 07:30N 29°33' W 090°45'0 0.0
2018-Feb-19 07:00N 29°33' W 090°45'0 0.0
2018-Feb-19 06:28N 29°33' W 090°45'0 0.4
2018-Feb-19 06:00N 29°33' W 090°45'3 5.9
2018-Feb-19 05:30N 29°32' W 090°48'4 7.3
2018-Feb-19 05:00N 29°32' W 090°53'4 7.1
2018-Feb-19 04:29N 29°34' W 090°56'2 3.9
2018-Feb-19 03:58N 29°35' W 090°58'0 0.0
2018-Feb-18 23:39N 29°35' W 090°58'2 6.0
2018-Feb-18 23:23N 29°34' W 090°57'2 6.1
2018-Feb-18 23:00N 29°33' W 090°54'3 5.7
2018-Feb-18 22:26N 29°32' W 090°51'2 5.4
2018-Feb-18 22:00N 29°32' W 090°48'2 4.9
2018-Feb-18 21:30N 29°33' W 090°45'2 4.6
2018-Feb-18 21:00N 29°34' W 090°43'2 4.2
2018-Feb-18 20:30N 29°36' W 090°43'2 3.9
2018-Feb-18 20:00N 29°36' W 090°40'2 4.7
2018-Feb-18 19:30N 29°35' W 090°38'3 5.6
2018-Feb-18 19:00N 29°34' W 090°35'  
2018-Feb-11 17:12N 29°34' W 090°23'2 5.8
2018-Feb-11 16:49N 29°33' W 090°26'2 7.2
2018-Feb-11 16:30N 29°34' W 090°28'4 7.2
2018-Feb-11 16:00N 29°34' W 090°33'3 5.9
2018-Feb-11 15:31N 29°35' W 090°36'1 1.0
2018-Feb-11 15:00N 29°35' W 090°36'0 0.1
2018-Feb-11 14:30N 29°35' W 090°36'0 0.2
2018-Feb-11 14:00N 29°35' W 090°36'0 0.5
2018-Feb-11 13:30N 29°35' W 090°36'0 0.0
2018-Feb-11 13:00N 29°35' W 090°36'0 0.0
2018-Feb-11 12:30N 29°35' W 090°36'0 0.0
2018-Feb-11 12:00N 29°35' W 090°36'0 0.0
2018-Feb-11 11:30N 29°35' W 090°36'0 0.0
2018-Feb-11 11:00N 29°35' W 090°36'0 0.0
2018-Feb-11 10:30N 29°35' W 090°36'0 0.0
2018-Feb-11 10:00N 29°35' W 090°36'0 0.0
2018-Feb-11 09:30N 29°35' W 090°36'0 0.0
2018-Feb-11 09:00N 29°35' W 090°36'0 0.0
2018-Feb-11 08:30N 29°35' W 090°36'0 0.0
2018-Feb-11 07:59N 29°35' W 090°36'0 0.0
2018-Feb-11 07:30N 29°35' W 090°36'0 0.0
2018-Feb-11 07:00N 29°35' W 090°36'0 0.0
2018-Feb-11 06:30N 29°35' W 090°36'0 0.0
2018-Feb-11 06:00N 29°35' W 090°36'0 0.0
2018-Feb-11 05:30N 29°35' W 090°36'0 0.0
2018-Feb-11 05:00N 29°35' W 090°36'0 0.0
2018-Feb-11 04:30N 29°35' W 090°36'0 0.0
2018-Feb-11 04:00N 29°35' W 090°36'0 0.0
2018-Feb-11 03:30N 29°35' W 090°36'0 0.0
2018-Feb-11 03:00N 29°35' W 090°36'0 0.0
2018-Feb-11 02:29N 29°35' W 090°36'0 0.0
2018-Feb-11 02:00N 29°35' W 090°36'0 0.0
2018-Feb-11 01:30N 29°35' W 090°36'0 0.0
2018-Feb-11 01:00N 29°35' W 090°36'0 0.0
2018-Feb-11 00:30N 29°35' W 090°36'0 0.4
2018-Feb-11 00:00N 29°35' W 090°36'3 6.4
2018-Feb-10 23:30N 29°36' W 090°39'3 5.8
2018-Feb-10 23:00N 29°37' W 090°42'2 4.9
2018-Feb-10 22:30N 29°34' W 090°43'2 3.5
2018-Feb-10 22:00N 29°33' W 090°45'0 0.0
2018-Feb-10 21:28N 29°33' W 090°45'0 0.0
2018-Feb-10 20:46N 29°33' W 090°45'0 0.0
2018-Feb-10 20:30N 29°33' W 090°45'0 0.0
2018-Feb-10 20:00N 29°33' W 090°45'0 0.7
2018-Feb-10 19:30N 29°33' W 090°45'3 5.1
2018-Feb-10 19:00N 29°32' W 090°48'4 7.4
2018-Feb-10 18:30N 29°32' W 090°52'4 7.4
2018-Feb-10 18:00N 29°34' W 090°56'1 0.1
2018-Feb-10 05:19N 29°34' W 090°57'2 5.7
2018-Feb-10 05:00N 29°33' W 090°55'3 6.2
2018-Feb-10 04:29N 29°32' W 090°52'3 6.4
2018-Feb-10 04:00N 29°32' W 090°48'3 5.7
2018-Feb-10 03:30N 29°33' W 090°45'3 5.2
2018-Feb-10 03:00N 29°35' W 090°43'2 3.9
2018-Feb-10 02:30N 29°37' W 090°41'3 6.1
2018-Feb-10 02:00N 29°35' W 090°38'3 5.1
2018-Feb-10 01:30N 29°35' W 090°35'3 5.8
2018-Feb-10 01:00N 29°34' W 090°32'  

Dump ship's entire track history